createdAt,value
2023-05-09T00:02:48.811Z,11.52
2023-05-09T00:06:51.038Z,11.80
2023-05-09T00:10:53.579Z,12.32
2023-05-09T00:14:56.611Z,13.38
2023-05-09T00:18:58.673Z,12.35
2023-05-09T00:23:00.663Z,12.85
2023-05-09T00:27:02.264Z,12.80
2023-05-09T00:31:04.497Z,14.25
2023-05-09T00:35:06.840Z,13.68
2023-05-09T00:39:08.431Z,13.70
2023-05-09T00:43:10.765Z,14.40
2023-05-09T00:47:12.442Z,14.23
2023-05-09T00:51:14.178Z,14.82
2023-05-09T00:55:16.581Z,15.57
2023-05-09T00:59:18.853Z,15.85
2023-05-09T01:03:20.736Z,15.15
2023-05-09T01:08:00.702Z,17.73
2023-05-09T01:12:31.737Z,16.90
2023-05-09T01:16:41.493Z,16.65
2023-05-09T01:20:47.281Z,17.90
2023-05-09T01:25:21.090Z,17.12
2023-05-09T01:29:44.692Z,17.30
2023-05-09T01:33:51.124Z,16.42
2023-05-09T01:37:55.426Z,17.87
2023-05-09T01:42:01.771Z,19.02
2023-05-09T01:46:06.847Z,17.50
2023-05-09T01:50:11.891Z,18.15
2023-05-09T01:54:15.074Z,17.58
2023-05-09T01:58:18.257Z,18.27
2023-05-09T02:02:20.726Z,18.92
2023-05-09T02:06:24.238Z,19.92
2023-05-09T02:10:28.606Z,20.17
2023-05-09T02:14:31.601Z,18.48
2023-05-09T02:18:34.171Z,19.27
2023-05-09T02:22:36.971Z,20.62
2023-05-09T02:26:39.975Z,18.77
2023-05-09T02:30:44.254Z,19.00
2023-05-09T02:34:46.803Z,19.27
2023-05-09T02:38:48.869Z,19.70
2023-05-09T02:42:50.522Z,20.55
2023-05-09T02:46:52.196Z,20.23
2023-05-09T02:50:54.068Z,20.37
2023-05-09T02:54:55.745Z,23.27
2023-05-09T02:58:57.402Z,20.12
2023-05-09T03:03:00.041Z,19.62
2023-05-09T03:07:01.905Z,20.90
2023-05-09T03:11:03.577Z,21.40
2023-05-09T03:15:08.718Z,20.85
2023-05-09T03:19:10.468Z,19.75
2023-05-09T03:23:12.173Z,21.70
2023-05-09T03:27:13.813Z,20.75
2023-05-09T03:31:16.467Z,21.87
2023-05-09T03:35:18.360Z,22.87
2023-05-09T03:39:20.009Z,23.27
2023-05-09T03:43:21.788Z,22.62
2023-05-09T03:47:23.471Z,22.92
2023-05-09T03:51:25.532Z,24.52
2023-05-09T03:55:27.468Z,24.12
2023-05-09T03:59:29.136Z,25.35
2023-05-09T04:03:31.849Z,24.67
2023-05-09T04:07:33.605Z,24.52
2023-05-09T04:11:35.266Z,23.85
2023-05-09T04:15:37.095Z,25.50
2023-05-09T04:19:38.763Z,23.20
2023-05-09T04:23:40.457Z,23.38
2023-05-09T04:27:42.235Z,23.12
2023-05-09T04:31:44.110Z,23.50
2023-05-09T04:35:46.026Z,22.90
2023-05-09T04:39:47.702Z,22.83
2023-05-09T04:43:49.422Z,23.23
2023-05-09T04:47:51.223Z,23.50
2023-05-09T04:51:53.031Z,22.95
2023-05-09T04:55:54.854Z,21.12
2023-05-09T04:59:56.605Z,22.92
2023-05-09T05:03:58.298Z,22.98
2023-05-09T05:08:00.000Z,22.02
2023-05-09T05:12:03.606Z,23.27
2023-05-09T05:16:06.784Z,22.65
2023-05-09T05:20:10.506Z,23.15
2023-05-09T05:24:12.216Z,22.83
2023-05-09T05:28:13.935Z,22.70
2023-05-09T05:32:15.598Z,21.02
2023-05-09T05:36:17.334Z,20.52
2023-05-09T05:40:19.056Z,21.23
2023-05-09T05:44:20.971Z,20.12
2023-05-09T05:48:23.130Z,19.75
2023-05-09T05:52:24.838Z,20.15
2023-05-09T05:56:26.531Z,20.60
2023-05-09T06:00:28.495Z,19.87
2023-05-09T06:04:30.301Z,19.00
2023-05-09T06:08:31.993Z,17.40
2023-05-09T06:12:34.295Z,19.25
2023-05-09T06:16:36.056Z,17.30
2023-05-09T06:20:37.719Z,18.58
2023-05-09T06:24:39.362Z,18.20
2023-05-09T06:28:41.480Z,18.20
2023-05-09T06:32:43.207Z,17.67
2023-05-09T06:36:44.888Z,16.80
2023-05-09T06:40:46.622Z,18.20
2023-05-09T06:44:48.373Z,15.93
2023-05-09T06:48:50.116Z,15.48
2023-05-09T06:52:51.790Z,16.30
2023-05-09T06:56:53.636Z,14.73
2023-05-09T07:00:56.066Z,15.43
2023-05-09T07:04:57.775Z,14.98
2023-05-09T07:08:59.461Z,16.20
2023-05-09T07:13:01.141Z,14.18
2023-05-09T07:17:18.112Z,16.10
2023-05-09T07:21:24.241Z,15.85
2023-05-09T07:25:25.976Z,13.07
2023-05-09T07:29:27.592Z,12.37
2023-05-09T07:33:29.206Z,11.43
2023-05-09T07:37:31.310Z,11.90
2023-05-09T07:41:33.948Z,11.10
2023-05-09T07:45:36.332Z,11.27
2023-05-09T07:49:38.244Z,11.98
2023-05-09T07:53:39.873Z,13.18
2023-05-09T07:57:41.536Z,11.12
2023-05-09T08:01:43.181Z,10.75
2023-05-09T08:05:44.861Z,10.13
2023-05-09T08:09:46.556Z,11.55
2023-05-09T08:13:48.310Z,10.52
2023-05-09T08:17:50.066Z,10.57
2023-05-09T08:21:55.573Z,10.82
2023-05-09T08:25:58.973Z,10.43
2023-05-09T08:30:01.028Z,9.43
2023-05-09T08:34:02.795Z,7.62
2023-05-09T08:38:04.481Z,7.40
2023-05-09T08:42:07.221Z,7.15
2023-05-09T08:46:10.929Z,8.55
2023-05-09T08:50:15.294Z,6.97
2023-05-09T08:54:18.479Z,6.25
2023-05-09T08:58:22.479Z,6.60
2023-05-09T09:02:24.452Z,5.18
2023-05-09T09:06:28.043Z,4.72
2023-05-09T09:10:32.561Z,4.55
2023-05-09T09:14:39.762Z,4.50
2023-05-09T09:22:43.877Z,4.22
2023-05-09T09:26:49.902Z,4.03
2023-05-09T09:30:51.682Z,3.10
2023-05-09T09:35:07.542Z,3.12
2023-05-09T09:39:09.317Z,3.35
2023-05-09T09:43:10.950Z,3.17
2023-05-09T09:47:12.594Z,3.17
2023-05-09T09:51:14.223Z,3.05
2023-05-09T09:55:16.354Z,3.00
2023-05-09T09:59:20.718Z,3.30
2023-05-09T10:03:22.446Z,3.70
2023-05-09T10:07:24.236Z,3.10
2023-05-09T10:11:26.305Z,3.40
2023-05-09T10:15:41.355Z,3.60
2023-05-09T10:19:49.218Z,2.85
2023-05-09T10:23:52.294Z,2.60
2023-05-09T10:28:00.480Z,3.08
2023-05-09T10:32:09.531Z,2.58
2023-05-09T10:36:12.666Z,3.15
2023-05-09T10:40:15.607Z,2.50
2023-05-09T10:44:17.462Z,2.67
2023-05-09T10:48:19.590Z,2.35
2023-05-09T10:52:22.752Z,2.05
2023-05-09T10:56:32.951Z,2.45
2023-05-09T11:00:40.809Z,2.15
2023-05-09T11:04:43.980Z,1.58
2023-05-09T11:08:45.674Z,2.12
2023-05-09T11:12:57.684Z,2.03
2023-05-09T11:17:04.865Z,1.83
2023-05-09T11:21:09.519Z,2.00
2023-05-09T11:25:13.149Z,1.92
2023-05-09T11:29:15.997Z,1.85
2023-05-09T11:33:27.108Z,1.85
2023-05-09T11:37:31.291Z,1.70
2023-05-09T11:41:41.048Z,1.25
2023-05-09T11:45:43.351Z,1.48
2023-05-09T11:49:45.144Z,1.30
2023-05-09T11:53:50.422Z,1.40
2023-05-09T11:57:53.907Z,1.20
2023-05-09T12:01:55.642Z,1.45
2023-05-09T12:05:57.418Z,1.40
2023-05-09T12:10:02.892Z,1.42
2023-05-09T12:14:05.243Z,1.25
2023-05-09T12:18:08.827Z,1.58
2023-05-09T12:22:10.681Z,1.67
2023-05-09T12:26:12.352Z,1.73
2023-05-09T12:30:15.976Z,1.80
2023-05-09T12:34:18.124Z,1.83
2023-05-09T12:38:23.514Z,1.42
2023-05-09T12:42:28.732Z,1.70
2023-05-09T12:46:30.688Z,2.15
2023-05-09T12:50:36.398Z,1.87
2023-05-09T12:54:38.059Z,1.73
2023-05-09T12:58:39.731Z,1.90
2023-05-09T13:02:42.079Z,1.70
2023-05-09T13:06:55.599Z,1.55
2023-05-09T13:11:11.976Z,1.48
2023-05-09T13:15:20.281Z,1.80
2023-05-09T13:19:22.039Z,3.50
2023-05-09T13:23:23.756Z,3.65
2023-05-09T13:27:25.576Z,4.20
2023-05-09T13:31:27.338Z,4.12
2023-05-09T13:35:29.553Z,4.47
2023-05-09T13:39:31.684Z,5.20
2023-05-09T13:43:34.212Z,5.40
2023-05-09T13:47:38.062Z,7.03
2023-05-09T13:51:40.927Z,6.70
2023-05-09T13:55:42.839Z,6.72
2023-05-09T13:59:44.511Z,6.80
2023-05-09T14:03:48.945Z,7.00
2023-05-09T14:07:50.761Z,7.20
2023-05-09T14:11:53.375Z,6.95
2023-05-09T14:15:55.053Z,6.72
2023-05-09T14:19:56.768Z,8.00
2023-05-09T14:23:58.457Z,6.90
2023-05-09T14:28:00.142Z,7.40
2023-05-09T14:32:02.071Z,7.35
2023-05-09T14:36:04.256Z,7.82
2023-05-09T14:40:06.898Z,7.80
2023-05-09T14:44:08.541Z,8.27
2023-05-09T14:48:10.537Z,6.45
2023-05-09T14:52:13.593Z,6.15
2023-05-09T14:56:15.235Z,7.20
2023-05-09T15:00:21.692Z,6.30
2023-05-09T15:04:28.122Z,6.87
2023-05-09T15:08:29.868Z,7.55
2023-05-09T15:12:31.713Z,8.13
2023-05-09T15:16:33.856Z,7.82
2023-05-09T15:20:36.243Z,8.35
2023-05-09T15:24:37.954Z,8.05
2023-05-09T15:28:39.786Z,8.05
2023-05-09T15:32:41.767Z,8.57
2023-05-09T15:36:43.453Z,9.50
2023-05-09T15:40:45.074Z,9.27
2023-05-09T15:44:47.166Z,8.90
2023-05-09T15:48:48.821Z,8.93
2023-05-09T15:52:52.218Z,9.57
2023-05-09T15:56:53.919Z,8.13
2023-05-09T16:00:55.871Z,8.40
2023-05-09T16:04:57.587Z,7.57
2023-05-09T16:08:59.339Z,6.00
2023-05-09T16:13:01.074Z,6.37
2023-05-09T16:17:05.737Z,7.30
2023-05-09T16:21:07.665Z,6.70
2023-05-09T16:25:10.299Z,5.85
2023-05-09T16:29:12.745Z,5.18
2023-05-09T16:33:14.483Z,5.12
2023-05-09T16:37:18.709Z,4.43
2023-05-09T16:41:20.440Z,4.90
2023-05-09T16:45:22.094Z,5.07
2023-05-09T16:49:23.820Z,5.70
2023-05-09T16:53:27.705Z,6.82
2023-05-09T16:57:29.655Z,5.03
2023-05-09T17:01:31.396Z,4.60
2023-05-09T17:05:33.297Z,3.70
2023-05-09T17:09:35.040Z,3.50
2023-05-09T17:13:36.821Z,3.37
2023-05-09T17:17:38.585Z,3.90
2023-05-09T17:21:41.516Z,3.33
2023-05-09T17:25:43.678Z,3.10
2023-05-09T17:29:45.387Z,2.67
2023-05-09T17:33:47.055Z,2.97
2023-05-09T17:37:48.897Z,3.15
2023-05-09T17:41:50.612Z,2.95
2023-05-09T17:45:52.355Z,2.70
2023-05-09T17:49:54.131Z,2.58
2023-05-09T17:53:55.841Z,2.15
2023-05-09T17:57:57.440Z,2.42
2023-05-09T18:01:59.135Z,2.55
2023-05-09T18:06:01.563Z,2.35
2023-05-09T18:10:03.301Z,1.95
2023-05-09T18:14:05.919Z,2.50
2023-05-09T18:18:07.951Z,2.45
2023-05-09T18:22:09.677Z,1.98
2023-05-09T18:26:11.379Z,1.60
2023-05-09T18:30:13.283Z,1.40
2023-05-09T18:34:15.168Z,1.60
2023-05-09T18:38:17.402Z,1.42
2023-05-09T18:42:19.189Z,1.90
2023-05-09T18:46:21.199Z,1.80
2023-05-09T18:50:23.040Z,1.80
2023-05-09T18:54:24.762Z,1.73
2023-05-09T18:58:26.417Z,1.73
2023-05-09T19:02:29.986Z,2.00
2023-05-09T19:06:32.304Z,2.10
2023-05-09T19:10:35.121Z,2.10
2023-05-09T19:14:37.828Z,1.80
2023-05-09T19:18:39.483Z,2.10
2023-05-09T19:22:45.452Z,2.12
2023-05-09T19:26:47.143Z,2.20
2023-05-09T19:30:49.844Z,2.50
2023-05-09T19:34:51.869Z,2.53
2023-05-09T19:38:53.555Z,2.58
2023-05-09T19:42:55.217Z,2.17
2023-05-09T19:46:58.378Z,1.98
2023-05-09T19:51:00.226Z,1.80
2023-05-09T19:55:01.891Z,1.90
2023-05-09T19:59:04.436Z,2.20
2023-05-09T20:03:06.151Z,2.17
2023-05-09T20:07:08.084Z,1.20
2023-05-09T20:11:09.796Z,0.70
2023-05-09T20:15:11.986Z,0.90
2023-05-09T20:19:14.494Z,0.80
2023-05-09T20:23:16.160Z,1.00
2023-05-09T20:27:17.877Z,1.27
2023-05-09T20:31:19.606Z,1.58
2023-05-09T20:35:21.351Z,2.12
2023-05-09T20:39:24.358Z,1.90
2023-05-09T20:43:25.979Z,2.08
2023-05-09T20:47:27.748Z,1.92
2023-05-09T20:51:31.458Z,2.00
2023-05-09T20:55:33.178Z,2.50
2023-05-09T20:59:34.965Z,4.05
2023-05-09T21:03:36.682Z,3.83
2023-05-09T21:07:38.324Z,4.35
2023-05-09T21:11:40.128Z,5.10
2023-05-09T21:15:41.746Z,4.53
2023-05-09T21:19:43.433Z,5.25
2023-05-09T21:23:45.462Z,5.97
2023-05-09T21:27:47.122Z,5.57
2023-05-09T21:31:48.719Z,5.97
2023-05-09T21:35:50.373Z,6.05
2023-05-09T21:39:52.019Z,6.05
2023-05-09T21:43:54.351Z,6.25
2023-05-09T21:47:56.353Z,6.22
2023-05-09T21:51:58.194Z,6.22
2023-05-09T21:55:59.837Z,6.50
2023-05-09T22:00:01.919Z,6.75
2023-05-09T22:04:03.833Z,6.43
2023-05-09T22:08:05.649Z,7.32
2023-05-09T22:12:07.426Z,7.07
2023-05-09T22:16:09.207Z,7.00
2023-05-09T22:20:11.532Z,6.90
2023-05-09T22:24:13.167Z,6.72
2023-05-09T22:28:15.017Z,7.03
2023-05-09T22:32:17.016Z,7.18
2023-05-09T22:36:18.759Z,7.07
2023-05-09T22:40:20.385Z,8.50
2023-05-09T22:44:22.069Z,8.05
2023-05-09T22:48:23.715Z,7.97
2023-05-09T22:52:26.141Z,8.23
2023-05-09T22:56:27.786Z,7.57
2023-05-09T23:00:29.643Z,8.07
2023-05-09T23:04:31.333Z,8.05
2023-05-09T23:08:33.843Z,8.77
2023-05-09T23:12:35.538Z,9.35
2023-05-09T23:16:37.189Z,10.52
2023-05-09T23:20:38.870Z,10.93
2023-05-09T23:24:41.150Z,9.82
2023-05-09T23:28:42.865Z,10.85
2023-05-09T23:32:44.580Z,11.35
2023-05-09T23:36:46.506Z,11.23
2023-05-09T23:40:48.309Z,11.77
2023-05-09T23:44:49.970Z,12.43
2023-05-09T23:48:51.861Z,11.98
2023-05-09T23:52:53.521Z,12.70
2023-05-09T23:56:57.161Z,12.05
